sensor_id;sensor_type;location;lat;lon;timestamp;P1;durP1;ratioP1;P2;durP2;ratioP2
7519;SDS011;3801;48.876;10.184;2022-08-04T00:02:37;1.70;;;1.60;;
7519;SDS011;3801;48.876;10.184;2022-08-04T00:07:44;2.13;;;1.70;;
7519;SDS011;3801;48.876;10.184;2022-08-04T00:12:50;1.85;;;1.45;;
7519;SDS011;3801;48.876;10.184;2022-08-04T00:17:56;2.63;;;1.60;;
7519;SDS011;3801;48.876;10.184;2022-08-04T01:48:52;2.90;;;1.70;;
7519;SDS011;3801;48.876;10.184;2022-08-04T01:53:56;5.40;;;2.17;;
7519;SDS011;3801;48.876;10.184;2022-08-04T01:58:59;2.38;;;1.60;;
7519;SDS011;3801;48.876;10.184;2022-08-04T02:04:06;2.38;;;2.00;;
7519;SDS011;3801;48.876;10.184;2022-08-04T02:09:25;2.00;;;1.80;;
7519;SDS011;3801;48.876;10.184;2022-08-04T02:14:35;1.63;;;1.42;;
7519;SDS011;3801;48.876;10.184;2022-08-04T02:19:49;3.25;;;1.65;;
7519;SDS011;3801;48.876;10.184;2022-08-04T02:24:56;2.30;;;1.67;;
7519;SDS011;3801;48.876;10.184;2022-08-04T02:30:03;1.70;;;1.60;;
7519;SDS011;3801;48.876;10.184;2022-08-04T02:35:10;4.15;;;1.95;;
7519;SDS011;3801;48.876;10.184;2022-08-04T02:40:18;3.15;;;2.28;;
7519;SDS011;3801;48.876;10.184;2022-08-04T02:45:22;1.90;;;1.75;;
7519;SDS011;3801;48.876;10.184;2022-08-04T02:50:29;4.20;;;2.10;;
7519;SDS011;3801;48.876;10.184;2022-08-04T02:55:36;1.42;;;1.33;;
7519;SDS011;3801;48.876;10.184;2022-08-04T03:00:51;2.55;;;1.88;;
7519;SDS011;3801;48.876;10.184;2022-08-04T03:06:07;2.08;;;1.80;;
7519;SDS011;3801;48.876;10.184;2022-08-04T03:11:25;3.17;;;1.60;;
7519;SDS011;3801;48.876;10.184;2022-08-04T03:22:01;2.05;;;1.67;;
7519;SDS011;3801;48.876;10.184;2022-08-04T03:27:10;1.95;;;1.80;;
7519;SDS011;3801;48.876;10.184;2022-08-04T03:32:20;1.63;;;1.52;;
7519;SDS011;3801;48.876;10.184;2022-08-04T03:48:11;3.40;;;2.03;;
7519;SDS011;3801;48.876;10.184;2022-08-04T03:53:20;1.88;;;1.77;;
7519;SDS011;3801;48.876;10.184;2022-08-04T03:58:38;2.08;;;1.77;;
7519;SDS011;3801;48.876;10.184;2022-08-04T04:03:56;2.17;;;1.98;;
7519;SDS011;3801;48.876;10.184;2022-08-04T04:14:56;1.80;;;1.70;;
7519;SDS011;3801;48.876;10.184;2022-08-04T04:20:07;2.17;;;1.83;;
7519;SDS011;3801;48.876;10.184;2022-08-04T04:25:18;2.00;;;1.70;;
7519;SDS011;3801;48.876;10.184;2022-08-04T04:30:24;3.37;;;1.80;;
7519;SDS011;3801;48.876;10.184;2022-08-04T04:35:34;2.30;;;1.73;;
7519;SDS011;3801;48.876;10.184;2022-08-04T04:40:42;1.60;;;1.50;;
7519;SDS011;3801;48.876;10.184;2022-08-04T04:45:52;1.67;;;1.57;;
7519;SDS011;3801;48.876;10.184;2022-08-04T04:51:02;4.07;;;1.80;;
7519;SDS011;3801;48.876;10.184;2022-08-04T04:56:10;2.50;;;1.80;;
7519;SDS011;3801;48.876;10.184;2022-08-04T05:01:27;3.93;;;1.80;;
7519;SDS011;3801;48.876;10.184;2022-08-04T05:06:44;2.50;;;1.93;;
7519;SDS011;3801;48.876;10.184;2022-08-04T05:12:10;2.77;;;2.07;;
7519;SDS011;3801;48.876;10.184;2022-08-04T05:17:38;2.67;;;2.08;;
7519;SDS011;3801;48.876;10.184;2022-08-04T05:22:51;2.33;;;1.80;;
7519;SDS011;3801;48.876;10.184;2022-08-04T05:27:56;3.35;;;1.88;;
7519;SDS011;3801;48.876;10.184;2022-08-04T05:33:02;2.20;;;2.00;;
7519;SDS011;3801;48.876;10.184;2022-08-04T05:38:08;2.00;;;1.70;;
7519;SDS011;3801;48.876;10.184;2022-08-04T05:43:13;2.25;;;1.98;;
7519;SDS011;3801;48.876;10.184;2022-08-04T05:48:17;2.10;;;1.90;;
7519;SDS011;3801;48.876;10.184;2022-08-04T05:53:22;3.42;;;2.00;;
7519;SDS011;3801;48.876;10.184;2022-08-04T05:58:26;2.70;;;1.90;;
7519;SDS011;3801;48.876;10.184;2022-08-04T06:03:30;2.22;;;1.80;;
7519;SDS011;3801;48.876;10.184;2022-08-04T06:08:37;2.08;;;1.88;;
7519;SDS011;3801;48.876;10.184;2022-08-04T06:13:42;2.50;;;2.17;;
7519;SDS011;3801;48.876;10.184;2022-08-04T06:18:52;2.90;;;1.85;;
7519;SDS011;3801;48.876;10.184;2022-08-04T06:24:18;4.70;;;1.90;;
7519;SDS011;3801;48.876;10.184;2022-08-04T06:29:22;2.40;;;2.20;;
7519;SDS011;3801;48.876;10.184;2022-08-04T06:34:30;1.73;;;1.63;;
7519;SDS011;3801;48.876;10.184;2022-08-04T06:39:36;2.38;;;1.80;;
7519;SDS011;3801;48.876;10.184;2022-08-04T06:44:39;2.20;;;1.80;;
7519;SDS011;3801;48.876;10.184;2022-08-04T06:49:44;2.22;;;1.88;;
7519;SDS011;3801;48.876;10.184;2022-08-04T06:55:10;2.63;;;2.22;;
7519;SDS011;3801;48.876;10.184;2022-08-04T07:00:15;3.85;;;2.15;;
7519;SDS011;3801;48.876;10.184;2022-08-04T07:05:19;3.13;;;1.90;;
7519;SDS011;3801;48.876;10.184;2022-08-04T07:10:24;2.00;;;1.80;;
7519;SDS011;3801;48.876;10.184;2022-08-04T07:15:28;1.92;;;1.73;;
7519;SDS011;3801;48.876;10.184;2022-08-04T07:20:32;2.28;;;1.70;;
7519;SDS011;3801;48.876;10.184;2022-08-04T07:25:39;1.92;;;1.73;;
7519;SDS011;3801;48.876;10.184;2022-08-04T07:31:02;2.08;;;1.70;;
7519;SDS011;3801;48.876;10.184;2022-08-04T07:36:07;1.63;;;1.50;;
7519;SDS011;3801;48.876;10.184;2022-08-04T07:41:14;2.45;;;1.88;;
7519;SDS011;3801;48.876;10.184;2022-08-04T07:46:37;1.65;;;1.38;;
7519;SDS011;3801;48.876;10.184;2022-08-04T07:51:41;2.53;;;1.35;;
7519;SDS011;3801;48.876;10.184;2022-08-04T07:56:46;1.83;;;1.52;;
7519;SDS011;3801;48.876;10.184;2022-08-04T08:01:50;1.83;;;1.73;;
7519;SDS011;3801;48.876;10.184;2022-08-04T08:06:55;1.88;;;1.40;;
7519;SDS011;3801;48.876;10.184;2022-08-04T08:12:00;2.70;;;1.45;;
7519;SDS011;3801;48.876;10.184;2022-08-04T08:17:23;1.55;;;1.38;;
7519;SDS011;3801;48.876;10.184;2022-08-04T08:22:27;2.88;;;1.77;;
7519;SDS011;3801;48.876;10.184;2022-08-04T08:27:32;1.60;;;1.50;;
7519;SDS011;3801;48.876;10.184;2022-08-04T08:32:36;2.80;;;1.67;;
7519;SDS011;3801;48.876;10.184;2022-08-04T08:37:40;1.88;;;1.73;;
7519;SDS011;3801;48.876;10.184;2022-08-04T08:43:07;1.90;;;1.52;;
7519;SDS011;3801;48.876;10.184;2022-08-04T08:48:40;1.80;;;1.70;;
7519;SDS011;3801;48.876;10.184;2022-08-04T08:53:51;1.80;;;1.30;;
7519;SDS011;3801;48.876;10.184;2022-08-04T08:59:12;3.50;;;1.70;;
7519;SDS011;3801;48.876;10.184;2022-08-04T09:09:46;2.70;;;1.90;;
7519;SDS011;3801;48.876;10.184;2022-08-04T09:14:54;2.85;;;1.95;;
7519;SDS011;3801;48.876;10.184;2022-08-04T09:20:02;1.70;;;1.60;;
7519;SDS011;3801;48.876;10.184;2022-08-04T09:25:10;1.60;;;1.50;;
7519;SDS011;3801;48.876;10.184;2022-08-04T09:30:17;1.65;;;1.50;;
7519;SDS011;3801;48.876;10.184;2022-08-04T09:35:21;1.50;;;1.40;;
7519;SDS011;3801;48.876;10.184;2022-08-04T09:40:26;2.25;;;1.40;;
7519;SDS011;3801;48.876;10.184;2022-08-04T09:45:54;2.22;;;1.80;;
7519;SDS011;3801;48.876;10.184;2022-08-04T09:51:01;3.20;;;1.38;;
7519;SDS011;3801;48.876;10.184;2022-08-04T09:56:09;2.50;;;2.00;;
7519;SDS011;3801;48.876;10.184;2022-08-04T10:01:18;2.65;;;1.70;;
7519;SDS011;3801;48.876;10.184;2022-08-04T10:06:44;6.40;;;1.50;;
7519;SDS011;3801;48.876;10.184;2022-08-04T10:11:51;2.08;;;1.63;;
7519;SDS011;3801;48.876;10.184;2022-08-04T10:17:00;1.60;;;1.50;;
7519;SDS011;3801;48.876;10.184;2022-08-04T10:22:10;2.03;;;1.60;;
7519;SDS011;3801;48.876;10.184;2022-08-04T10:27:32;1.70;;;1.60;;
7519;SDS011;3801;48.876;10.184;2022-08-04T10:32:42;1.60;;;1.50;;
7519;SDS011;3801;48.876;10.184;2022-08-04T10:37:49;1.50;;;1.40;;
7519;SDS011;3801;48.876;10.184;2022-08-04T10:43:04;1.92;;;1.80;;
7519;SDS011;3801;48.876;10.184;2022-08-04T10:48:26;2.38;;;2.00;;
7519;SDS011;3801;48.876;10.184;2022-08-04T10:53:36;2.58;;;1.92;;
7519;SDS011;3801;48.876;10.184;2022-08-04T10:58:43;2.65;;;1.58;;
7519;SDS011;3801;48.876;10.184;2022-08-04T11:03:54;2.28;;;1.70;;
7519;SDS011;3801;48.876;10.184;2022-08-04T11:08:58;1.75;;;1.65;;
7519;SDS011;3801;48.876;10.184;2022-08-04T11:14:03;6.88;;;1.83;;
7519;SDS011;3801;48.876;10.184;2022-08-04T11:19:12;1.75;;;1.63;;
7519;SDS011;3801;48.876;10.184;2022-08-04T11:24:21;2.47;;;1.75;;
7519;SDS011;3801;48.876;10.184;2022-08-04T11:29:29;2.08;;;1.77;;
7519;SDS011;3801;48.876;10.184;2022-08-04T11:34:50;2.15;;;1.95;;
7519;SDS011;3801;48.876;10.184;2022-08-04T11:40:01;3.60;;;1.80;;
7519;SDS011;3801;48.876;10.184;2022-08-04T11:45:06;2.00;;;1.88;;
7519;SDS011;3801;48.876;10.184;2022-08-04T11:50:17;3.30;;;1.88;;
7519;SDS011;3801;48.876;10.184;2022-08-04T11:55:21;2.30;;;2.03;;
7519;SDS011;3801;48.876;10.184;2022-08-04T12:00:28;3.75;;;1.83;;
7519;SDS011;3801;48.876;10.184;2022-08-04T12:05:36;3.63;;;2.00;;
7519;SDS011;3801;48.876;10.184;2022-08-04T12:10:44;4.47;;;1.90;;
7519;SDS011;3801;48.876;10.184;2022-08-04T12:15:52;2.85;;;1.92;;
7519;SDS011;3801;48.876;10.184;2022-08-04T12:21:00;2.63;;;2.00;;
7519;SDS011;3801;48.876;10.184;2022-08-04T12:26:05;3.22;;;1.85;;
7519;SDS011;3801;48.876;10.184;2022-08-04T12:31:11;3.17;;;2.00;;
7519;SDS011;3801;48.876;10.184;2022-08-04T12:36:21;1.80;;;1.70;;
7519;SDS011;3801;48.876;10.184;2022-08-04T12:41:28;1.95;;;1.83;;
7519;SDS011;3801;48.876;10.184;2022-08-04T12:46:37;3.28;;;2.00;;
7519;SDS011;3801;48.876;10.184;2022-08-04T12:51:43;1.70;;;1.60;;
7519;SDS011;3801;48.876;10.184;2022-08-04T12:57:07;5.40;;;2.25;;
7519;SDS011;3801;48.876;10.184;2022-08-04T13:02:11;3.10;;;1.92;;
7519;SDS011;3801;48.876;10.184;2022-08-04T13:07:19;2.60;;;2.20;;
7519;SDS011;3801;48.876;10.184;2022-08-04T13:12:23;3.13;;;2.20;;
7519;SDS011;3801;48.876;10.184;2022-08-04T13:17:44;2.10;;;1.90;;
7519;SDS011;3801;48.876;10.184;2022-08-04T13:22:51;3.13;;;2.08;;
7519;SDS011;3801;48.876;10.184;2022-08-04T13:27:55;2.25;;;2.00;;
7519;SDS011;3801;48.876;10.184;2022-08-04T13:32:59;2.28;;;2.08;;
7519;SDS011;3801;48.876;10.184;2022-08-04T13:38:04;2.42;;;1.65;;
7519;SDS011;3801;48.876;10.184;2022-08-04T13:43:12;2.58;;;2.08;;
7519;SDS011;3801;48.876;10.184;2022-08-04T13:48:44;2.50;;;2.03;;
7519;SDS011;3801;48.876;10.184;2022-08-04T13:54:10;3.85;;;2.15;;
7519;SDS011;3801;48.876;10.184;2022-08-04T13:59:14;2.38;;;2.17;;
7519;SDS011;3801;48.876;10.184;2022-08-04T14:04:19;2.03;;;1.83;;
7519;SDS011;3801;48.876;10.184;2022-08-04T14:09:25;2.60;;;2.13;;
7519;SDS011;3801;48.876;10.184;2022-08-04T14:14:43;1.92;;;1.80;;
7519;SDS011;3801;48.876;10.184;2022-08-04T14:19:51;2.70;;;1.90;;
7519;SDS011;3801;48.876;10.184;2022-08-04T14:24:57;3.88;;;1.98;;
7519;SDS011;3801;48.876;10.184;2022-08-04T14:30:00;2.03;;;1.85;;
7519;SDS011;3801;48.876;10.184;2022-08-04T14:35:09;2.30;;;1.88;;
7519;SDS011;3801;48.876;10.184;2022-08-04T14:40:22;2.13;;;1.92;;
7519;SDS011;3801;48.876;10.184;2022-08-04T14:45:33;3.25;;;2.10;;
7519;SDS011;3801;48.876;10.184;2022-08-04T14:50:38;2.00;;;1.90;;
7519;SDS011;3801;48.876;10.184;2022-08-04T14:55:44;3.70;;;2.10;;
7519;SDS011;3801;48.876;10.184;2022-08-04T15:00:48;12.70;;;2.88;;
7519;SDS011;3801;48.876;10.184;2022-08-04T15:05:52;3.45;;;1.75;;
7519;SDS011;3801;48.876;10.184;2022-08-04T15:11:07;3.40;;;1.95;;
7519;SDS011;3801;48.876;10.184;2022-08-04T15:16:24;2.95;;;1.90;;
7519;SDS011;3801;48.876;10.184;2022-08-04T15:21:28;2.38;;;2.10;;
7519;SDS011;3801;48.876;10.184;2022-08-04T15:26:34;2.35;;;2.00;;
7519;SDS011;3801;48.876;10.184;2022-08-04T15:31:40;2.85;;;1.90;;
7519;SDS011;3801;48.876;10.184;2022-08-04T15:37:03;2.00;;;1.80;;
7519;SDS011;3801;48.876;10.184;2022-08-04T15:42:12;2.15;;;1.80;;
7519;SDS011;3801;48.876;10.184;2022-08-04T15:47:22;2.15;;;1.95;;
7519;SDS011;3801;48.876;10.184;2022-08-04T15:52:25;2.22;;;2.00;;
7519;SDS011;3801;48.876;10.184;2022-08-04T16:02:53;2.42;;;2.00;;
7519;SDS011;3801;48.876;10.184;2022-08-04T16:07:57;2.22;;;2.03;;
7519;SDS011;3801;48.876;10.184;2022-08-04T16:13:02;2.55;;;1.98;;
7519;SDS011;3801;48.876;10.184;2022-08-04T16:18:07;2.58;;;2.00;;
7519;SDS011;3801;48.876;10.184;2022-08-04T16:23:33;2.60;;;2.22;;
7519;SDS011;3801;48.876;10.184;2022-08-04T16:28:56;2.30;;;2.10;;
7519;SDS011;3801;48.876;10.184;2022-08-04T16:34:00;2.20;;;2.00;;
7519;SDS011;3801;48.876;10.184;2022-08-04T16:39:24;2.30;;;2.10;;
7519;SDS011;3801;48.876;10.184;2022-08-04T16:44:28;2.08;;;1.95;;
7519;SDS011;3801;48.876;10.184;2022-08-04T16:50:01;2.40;;;2.20;;
7519;SDS011;3801;48.876;10.184;2022-08-04T16:55:04;3.55;;;2.33;;
7519;SDS011;3801;48.876;10.184;2022-08-04T17:00:08;4.50;;;2.83;;
7519;SDS011;3801;48.876;10.184;2022-08-04T17:05:20;6.53;;;3.28;;
7519;SDS011;3801;48.876;10.184;2022-08-04T17:10:41;7.10;;;4.38;;
7519;SDS011;3801;48.876;10.184;2022-08-04T17:15:46;2.55;;;2.35;;
7519;SDS011;3801;48.876;10.184;2022-08-04T17:20:51;3.85;;;2.53;;
7519;SDS011;3801;48.876;10.184;2022-08-04T17:26:04;3.67;;;2.50;;
7519;SDS011;3801;48.876;10.184;2022-08-04T17:31:13;2.28;;;2.00;;
7519;SDS011;3801;48.876;10.184;2022-08-04T17:36:20;5.72;;;3.30;;
7519;SDS011;3801;48.876;10.184;2022-08-04T17:41:29;2.83;;;2.40;;
7519;SDS011;3801;48.876;10.184;2022-08-04T17:46:40;2.60;;;2.30;;
7519;SDS011;3801;48.876;10.184;2022-08-04T17:51:51;2.40;;;2.15;;
7519;SDS011;3801;48.876;10.184;2022-08-04T17:57:15;2.63;;;2.42;;
7519;SDS011;3801;48.876;10.184;2022-08-04T18:02:21;2.55;;;2.20;;
7519;SDS011;3801;48.876;10.184;2022-08-04T18:07:37;2.65;;;2.45;;
7519;SDS011;3801;48.876;10.184;2022-08-04T18:13:04;3.63;;;2.42;;
7519;SDS011;3801;48.876;10.184;2022-08-04T18:18:16;5.03;;;2.70;;
7519;SDS011;3801;48.876;10.184;2022-08-04T18:23:25;4.30;;;2.53;;
7519;SDS011;3801;48.876;10.184;2022-08-04T18:28:33;5.18;;;2.85;;
7519;SDS011;3801;48.876;10.184;2022-08-04T18:33:37;2.70;;;2.30;;
7519;SDS011;3801;48.876;10.184;2022-08-04T18:38:44;4.10;;;2.38;;
7519;SDS011;3801;48.876;10.184;2022-08-04T18:43:57;7.72;;;2.50;;
7519;SDS011;3801;48.876;10.184;2022-08-04T18:49:00;3.85;;;2.50;;
7519;SDS011;3801;48.876;10.184;2022-08-04T18:54:06;7.68;;;2.60;;
7519;SDS011;3801;48.876;10.184;2022-08-04T18:59:10;3.00;;;2.70;;
7519;SDS011;3801;48.876;10.184;2022-08-04T19:04:15;3.33;;;2.50;;
7519;SDS011;3801;48.876;10.184;2022-08-04T19:09:38;3.70;;;2.58;;
7519;SDS011;3801;48.876;10.184;2022-08-04T19:14:53;3.90;;;2.65;;
7519;SDS011;3801;48.876;10.184;2022-08-04T19:20:00;3.72;;;2.40;;
7519;SDS011;3801;48.876;10.184;2022-08-04T19:25:06;3.95;;;2.60;;
7519;SDS011;3801;48.876;10.184;2022-08-04T19:30:10;4.72;;;2.58;;
7519;SDS011;3801;48.876;10.184;2022-08-04T19:35:18;5.47;;;2.42;;
7519;SDS011;3801;48.876;10.184;2022-08-04T19:40:25;4.35;;;2.60;;
7519;SDS011;3801;48.876;10.184;2022-08-04T19:45:34;2.67;;;2.47;;
7519;SDS011;3801;48.876;10.184;2022-08-04T19:50:46;4.53;;;2.47;;
7519;SDS011;3801;48.876;10.184;2022-08-04T19:55:51;2.97;;;2.63;;
7519;SDS011;3801;48.876;10.184;2022-08-04T20:00:54;2.40;;;2.20;;
7519;SDS011;3801;48.876;10.184;2022-08-04T20:05:58;4.18;;;2.67;;
7519;SDS011;3801;48.876;10.184;2022-08-04T20:11:02;13.40;;;3.47;;
7519;SDS011;3801;48.876;10.184;2022-08-04T20:16:12;3.78;;;2.65;;
7519;SDS011;3801;48.876;10.184;2022-08-04T20:21:35;3.67;;;2.53;;
7519;SDS011;3801;48.876;10.184;2022-08-04T20:26:58;2.75;;;2.40;;
7519;SDS011;3801;48.876;10.184;2022-08-04T20:32:10;3.88;;;2.80;;
7519;SDS011;3801;48.876;10.184;2022-08-04T20:37:16;3.30;;;2.40;;
7519;SDS011;3801;48.876;10.184;2022-08-04T20:42:20;2.58;;;2.30;;
7519;SDS011;3801;48.876;10.184;2022-08-04T20:47:29;2.75;;;2.50;;
7519;SDS011;3801;48.876;10.184;2022-08-04T20:52:37;3.83;;;2.70;;
7519;SDS011;3801;48.876;10.184;2022-08-04T20:57:42;2.88;;;2.58;;
7519;SDS011;3801;48.876;10.184;2022-08-04T21:02:51;3.42;;;2.58;;
7519;SDS011;3801;48.876;10.184;2022-08-04T21:07:55;2.78;;;2.53;;
7519;SDS011;3801;48.876;10.184;2022-08-04T21:13:00;4.85;;;3.50;;
7519;SDS011;3801;48.876;10.184;2022-08-04T21:18:04;5.03;;;3.85;;
7519;SDS011;3801;48.876;10.184;2022-08-04T21:23:12;5.72;;;4.22;;
7519;SDS011;3801;48.876;10.184;2022-08-04T21:28:17;4.47;;;3.13;;
7519;SDS011;3801;48.876;10.184;2022-08-04T21:33:22;5.35;;;4.00;;
7519;SDS011;3801;48.876;10.184;2022-08-04T21:38:46;8.23;;;3.25;;
7519;SDS011;3801;48.876;10.184;2022-08-04T21:43:54;4.10;;;2.65;;
7519;SDS011;3801;48.876;10.184;2022-08-04T21:49:00;4.05;;;2.90;;
7519;SDS011;3801;48.876;10.184;2022-08-04T21:54:10;5.43;;;2.65;;
7519;SDS011;3801;48.876;10.184;2022-08-04T21:59:19;3.42;;;2.75;;
7519;SDS011;3801;48.876;10.184;2022-08-04T22:04:31;3.72;;;3.28;;
7519;SDS011;3801;48.876;10.184;2022-08-04T22:09:35;4.43;;;2.80;;
7519;SDS011;3801;48.876;10.184;2022-08-04T22:14:43;3.00;;;2.63;;
7519;SDS011;3801;48.876;10.184;2022-08-04T22:19:51;2.90;;;2.63;;
7519;SDS011;3801;48.876;10.184;2022-08-04T22:24:59;2.75;;;2.40;;
7519;SDS011;3801;48.876;10.184;2022-08-04T22:30:15;2.63;;;2.42;;
7519;SDS011;3801;48.876;10.184;2022-08-04T22:35:19;2.80;;;2.58;;
7519;SDS011;3801;48.876;10.184;2022-08-04T22:40:42;8.05;;;4.20;;
7519;SDS011;3801;48.876;10.184;2022-08-04T22:45:49;6.85;;;4.70;;
7519;SDS011;3801;48.876;10.184;2022-08-04T22:50:53;10.00;;;6.22;;
7519;SDS011;3801;48.876;10.184;2022-08-04T22:55:57;9.02;;;5.88;;
7519;SDS011;3801;48.876;10.184;2022-08-04T23:01:13;9.27;;;5.40;;
7519;SDS011;3801;48.876;10.184;2022-08-04T23:06:17;6.38;;;4.57;;
7519;SDS011;3801;48.876;10.184;2022-08-04T23:11:25;4.15;;;3.60;;
7519;SDS011;3801;48.876;10.184;2022-08-04T23:16:37;4.28;;;3.60;;
7519;SDS011;3801;48.876;10.184;2022-08-04T23:21:43;3.35;;;2.70;;
7519;SDS011;3801;48.876;10.184;2022-08-04T23:27:02;4.28;;;2.83;;
7519;SDS011;3801;48.876;10.184;2022-08-04T23:32:07;3.92;;;3.00;;
7519;SDS011;3801;48.876;10.184;2022-08-04T23:37:13;3.55;;;2.50;;
7519;SDS011;3801;48.876;10.184;2022-08-04T23:42:17;6.28;;;4.13;;
7519;SDS011;3801;48.876;10.184;2022-08-04T23:47:23;7.63;;;4.80;;
7519;SDS011;3801;48.876;10.184;2022-08-04T23:52:47;7.28;;;5.07;;
7519;SDS011;3801;48.876;10.184;2022-08-04T23:57:50;9.80;;;4.47;;
